createdAt,value
2018-09-20T00:02:21.256Z,95798.55
2018-09-20T00:04:50.175Z,95795.92
2018-09-20T00:07:19.089Z,95791.67
2018-09-20T00:09:47.979Z,95785.14
2018-09-20T00:12:16.872Z,95790.75
2018-09-20T00:14:45.767Z,95786.11
2018-09-20T00:17:14.650Z,95787.72
2018-09-20T00:19:43.616Z,95784.45
2018-09-20T00:22:12.595Z,95788.41
2018-09-20T00:24:41.554Z,95787.78
2018-09-20T00:27:10.457Z,95785.48
2018-09-20T00:29:39.372Z,95788.49
2018-09-20T00:32:08.310Z,95778.52
2018-09-20T00:34:37.268Z,95786.10
2018-09-20T00:37:06.344Z,95779.83
2018-09-20T00:39:35.266Z,95782.97
2018-09-20T00:42:04.191Z,95782.97
2018-09-20T00:44:33.159Z,95784.97
2018-09-20T00:47:02.038Z,95781.70
2018-09-20T00:49:31.033Z,95782.52
2018-09-20T00:51:59.924Z,95779.57
2018-09-20T00:54:28.859Z,95778.55
2018-09-20T00:56:57.832Z,95775.12
2018-09-20T00:59:26.844Z,95781.36
2018-09-20T01:01:55.751Z,95785.63
2018-09-20T01:04:24.722Z,95782.36
2018-09-20T01:06:53.616Z,95782.53
2018-09-20T01:09:22.566Z,95783.53
2018-09-20T01:11:51.473Z,95782.55
2018-09-20T01:14:20.424Z,95782.39
2018-09-20T01:16:49.413Z,95779.30
2018-09-20T01:19:18.608Z,95778.48
2018-09-20T01:21:47.588Z,95784.41
2018-09-20T01:24:16.638Z,95781.78
2018-09-20T01:26:45.572Z,95787.36
2018-09-20T01:29:14.495Z,95787.71
2018-09-20T01:31:43.392Z,95789.98
2018-09-20T01:34:12.375Z,95787.86
2018-09-20T01:36:41.282Z,95786.84
2018-09-20T01:39:12.856Z,95792.28
2018-09-20T01:41:41.773Z,95789.62
2018-09-20T01:44:11.164Z,95792.42
2018-09-20T01:46:40.052Z,95793.91
2018-09-20T01:49:09.617Z,95796.23
2018-09-20T01:51:38.593Z,95793.42
2018-09-20T01:54:07.562Z,95800.31
2018-09-20T01:56:36.533Z,95797.05
2018-09-20T01:59:05.692Z,95794.58
2018-09-20T02:01:34.666Z,95802.50
2018-09-20T02:04:03.628Z,95795.59
2018-09-20T02:06:32.548Z,95801.84
2018-09-20T02:09:01.563Z,95802.50
2018-09-20T02:11:30.471Z,95797.72
2018-09-20T02:13:59.380Z,95800.84
2018-09-20T02:16:28.339Z,95800.20
2018-09-20T02:18:57.326Z,95803.81
2018-09-20T02:21:26.208Z,95803.48
2018-09-20T02:23:55.204Z,95806.94
2018-09-20T02:26:24.102Z,95805.14
2018-09-20T02:28:53.004Z,95806.27
2018-09-20T02:31:21.942Z,95805.95
2018-09-20T02:33:50.857Z,95801.17
2018-09-20T02:36:19.750Z,95799.39
2018-09-20T02:38:48.823Z,95793.80
2018-09-20T02:41:17.779Z,95797.41
2018-09-20T02:43:46.776Z,95795.59
2018-09-20T02:46:15.664Z,95801.20
2018-09-20T02:48:44.569Z,95802.97
2018-09-20T02:51:13.518Z,95804.14
2018-09-20T02:53:42.421Z,95803.48
2018-09-20T02:56:11.389Z,95806.44
2018-09-20T02:58:40.289Z,95811.86
2018-09-20T03:01:09.196Z,95806.11
2018-09-20T03:03:38.208Z,95814.83
2018-09-20T03:06:07.139Z,95813.03
2018-09-20T03:08:36.032Z,95812.84
2018-09-20T03:11:04.976Z,95810.39
2018-09-20T03:13:33.976Z,95806.93
2018-09-20T03:16:02.874Z,95815.14
2018-09-20T03:18:31.786Z,95816.62
2018-09-20T03:21:00.775Z,95808.72
2018-09-20T03:23:29.664Z,95814.94
2018-09-20T03:25:58.712Z,95811.32
2018-09-20T03:28:28.109Z,95811.63
2018-09-20T03:30:57.140Z,95810.63
2018-09-20T03:33:26.075Z,95814.75
2018-09-20T03:35:54.956Z,95814.58
2018-09-20T03:38:23.921Z,95816.22
2018-09-20T03:40:52.839Z,95817.34
2018-09-20T03:43:21.804Z,95816.18
2018-09-20T03:45:50.700Z,95821.45
2018-09-20T03:48:19.677Z,95815.84
2018-09-20T03:50:48.657Z,95815.31
2018-09-20T03:53:17.596Z,95817.13
2018-09-20T03:55:46.485Z,95815.65
2018-09-20T03:58:15.444Z,95819.94
2018-09-20T04:00:44.360Z,95822.70
2018-09-20T04:03:13.348Z,95825.33
2018-09-20T04:05:42.264Z,95824.00
2018-09-20T04:08:11.156Z,95818.40
2018-09-20T04:10:41.184Z,95821.19
2018-09-20T04:13:10.060Z,95819.36
2018-09-20T04:15:39.008Z,95821.49
2018-09-20T04:18:07.991Z,95824.61
2018-09-20T04:20:36.867Z,95822.97
2018-09-20T04:23:05.766Z,95821.52
2018-09-20T04:25:34.674Z,95821.00
2018-09-20T04:28:03.641Z,95819.76
2018-09-20T04:30:32.526Z,95814.02
2018-09-20T04:33:01.470Z,95816.69
2018-09-20T04:35:30.390Z,95820.14
2018-09-20T04:37:59.339Z,95825.06
2018-09-20T04:40:28.255Z,95821.17
2018-09-20T04:42:57.167Z,95821.73
2018-09-20T04:45:26.131Z,95813.19
2018-09-20T04:47:55.095Z,95815.80
2018-09-20T04:50:24.048Z,95817.95
2018-09-20T04:52:52.988Z,95816.63
2018-09-20T04:55:21.878Z,95812.69
2018-09-20T04:57:50.800Z,95806.95
2018-09-20T05:00:19.697Z,95811.86
2018-09-20T05:02:48.613Z,95816.63
2018-09-20T05:05:17.943Z,95816.94
2018-09-20T05:07:46.953Z,95813.17
2018-09-20T05:10:15.864Z,95804.79
2018-09-20T05:12:44.951Z,95808.23
2018-09-20T05:15:13.856Z,95809.20
2018-09-20T05:17:42.776Z,95809.99
2018-09-20T05:20:11.764Z,95803.77
2018-09-20T05:22:40.632Z,95818.20
2018-09-20T05:25:09.564Z,95815.44
2018-09-20T05:27:38.455Z,95821.51
2018-09-20T05:30:07.927Z,95813.80
2018-09-20T05:32:36.821Z,95816.37
2018-09-20T05:35:05.885Z,95809.42
2018-09-20T05:37:34.796Z,95815.95
2018-09-20T05:40:03.752Z,95817.51
2018-09-20T05:42:32.749Z,95805.93
2018-09-20T05:45:01.662Z,95809.25
2018-09-20T05:47:30.589Z,95805.41
2018-09-20T05:49:59.600Z,95809.48
2018-09-20T05:52:28.780Z,95816.89
2018-09-20T05:54:57.800Z,95818.28
2018-09-20T05:57:26.809Z,95821.69
2018-09-20T05:59:55.827Z,95812.48
2018-09-20T06:02:24.748Z,95812.94
2018-09-20T06:04:53.751Z,95809.61
2018-09-20T06:07:22.788Z,95815.45
2018-09-20T06:09:51.794Z,95812.44
2018-09-20T06:12:20.754Z,95813.23
2018-09-20T06:14:49.739Z,95803.70
2018-09-20T06:17:18.651Z,95805.75
2018-09-20T06:19:47.611Z,95800.80
2018-09-20T06:22:16.539Z,95807.98
2018-09-20T06:24:45.429Z,95808.42
2018-09-20T06:27:14.335Z,95808.87
2018-09-20T06:29:43.233Z,95811.70
2018-09-20T06:32:12.130Z,95809.50
2018-09-20T06:34:41.024Z,95820.19
2018-09-20T06:37:10.021Z,95818.73
2018-09-20T06:39:38.958Z,95821.23
2018-09-20T06:42:07.877Z,95820.80
2018-09-20T06:44:36.879Z,95829.61
2018-09-20T06:47:06.062Z,95825.67
2018-09-20T06:49:35.012Z,95823.74
2018-09-20T06:52:04.013Z,95817.31
2018-09-20T06:54:32.980Z,95820.94
2018-09-20T06:57:01.876Z,95819.28
2018-09-20T06:59:30.832Z,95821.71
2018-09-20T07:01:59.801Z,95834.27
2018-09-20T07:04:28.748Z,95829.27
2018-09-20T07:06:57.668Z,95832.97
2018-09-20T07:09:26.629Z,95829.44
2018-09-20T07:11:55.580Z,95831.61
2018-09-20T07:14:24.502Z,95829.36
2018-09-20T07:16:53.471Z,95826.70
2018-09-20T07:19:22.431Z,95822.80
2018-09-20T07:21:51.393Z,95816.28
2018-09-20T07:24:20.288Z,95817.67
2018-09-20T07:26:49.179Z,95819.28
2018-09-20T07:29:18.083Z,95818.70
2018-09-20T07:31:47.016Z,95811.20
2018-09-20T07:34:15.952Z,95811.58
2018-09-20T07:36:44.869Z,95808.59
2018-09-20T07:39:13.830Z,95808.69
2018-09-20T07:41:42.843Z,95802.40
2018-09-20T07:44:11.748Z,95800.42
2018-09-20T07:46:40.656Z,95791.39
2018-09-20T07:49:09.803Z,95799.03
2018-09-20T07:51:38.739Z,95798.33
2018-09-20T07:54:07.645Z,95792.70
2018-09-20T07:56:36.588Z,95787.84
2018-09-20T07:59:05.583Z,95786.71
2018-09-20T08:01:34.662Z,95783.62
2018-09-20T08:04:03.649Z,95785.25
2018-09-20T08:06:32.611Z,95777.70
2018-09-20T08:09:01.525Z,95779.84
2018-09-20T08:11:30.443Z,95776.23
2018-09-20T08:13:59.342Z,95774.95
2018-09-20T08:16:28.225Z,95775.34
2018-09-20T08:18:57.144Z,95775.23
2018-09-20T08:21:26.114Z,95771.53
2018-09-20T08:23:55.028Z,95770.86
2018-09-20T08:26:24.032Z,95766.59
2018-09-20T08:28:53.230Z,95770.67
2018-09-20T08:31:22.260Z,95769.92
2018-09-20T08:33:51.160Z,95762.45
2018-09-20T08:36:20.057Z,95761.50
2018-09-20T08:38:48.948Z,95760.79
2018-09-20T08:41:17.879Z,95755.48
2018-09-20T08:43:47.060Z,95754.13
2018-09-20T08:46:15.963Z,95752.03
2018-09-20T08:48:44.839Z,95747.19
2018-09-20T08:51:13.804Z,95744.57
2018-09-20T08:53:42.785Z,95741.45
2018-09-20T08:56:11.671Z,95743.21
2018-09-20T08:58:40.584Z,95743.17
2018-09-20T09:01:09.533Z,95740.70
2018-09-20T09:03:38.432Z,95741.13
2018-09-20T09:06:07.341Z,95737.77
2018-09-20T09:08:36.362Z,95731.77
2018-09-20T09:11:05.250Z,95730.31
2018-09-20T09:13:34.196Z,95722.78
2018-09-20T09:16:03.111Z,95718.81
2018-09-20T09:18:32.056Z,95715.95
2018-09-20T09:21:36.492Z,95721.59
2018-09-20T09:24:05.447Z,95714.95
2018-09-20T09:26:34.313Z,95710.25
2018-09-20T09:29:03.180Z,95709.43
2018-09-20T09:31:32.078Z,95703.73
2018-09-20T09:34:00.974Z,95697.19
2018-09-20T09:36:29.925Z,95702.70
2018-09-20T09:38:58.808Z,95698.20
2018-09-20T09:41:27.711Z,95690.64
2018-09-20T09:43:56.584Z,95696.25
2018-09-20T09:46:25.603Z,95699.12
2018-09-20T09:48:54.470Z,95689.73
2018-09-20T09:54:25.755Z,95684.86
2018-09-20T09:56:54.651Z,95683.53
2018-09-20T09:59:23.612Z,95678.78
2018-09-20T10:01:52.499Z,95676.02
2018-09-20T10:04:21.396Z,95674.91
2018-09-20T10:06:50.335Z,95663.79
2018-09-20T10:09:19.304Z,95667.45
2018-09-20T10:11:48.183Z,95664.69
2018-09-20T10:14:17.084Z,95661.22
2018-09-20T10:16:45.962Z,95661.70
2018-09-20T10:19:14.900Z,95664.16
2018-09-20T10:21:43.783Z,95654.09
2018-09-20T10:24:12.644Z,95648.48
2018-09-20T10:26:41.592Z,95650.63
2018-09-20T10:29:10.488Z,95649.81
2018-09-20T10:31:39.467Z,95652.62
2018-09-20T10:34:08.454Z,95647.64
2018-09-20T10:36:37.315Z,95643.40
2018-09-20T10:39:08.839Z,95636.16
2018-09-20T10:41:37.784Z,95638.38
2018-09-20T10:44:07.036Z,95633.25
2018-09-20T10:46:35.905Z,95630.51
2018-09-20T10:49:04.820Z,95632.84
2018-09-20T10:51:33.778Z,95631.42
2018-09-20T10:54:02.745Z,95627.09
2018-09-20T10:56:31.623Z,95624.97
2018-09-20T10:59:00.495Z,95619.61
2018-09-20T11:01:29.376Z,95623.78
2018-09-20T11:03:58.300Z,95611.40
2018-09-20T11:06:27.183Z,95611.28
2018-09-20T11:08:56.052Z,95608.45
2018-09-20T11:11:24.982Z,95603.72
2018-09-20T11:13:53.983Z,95597.98
2018-09-20T11:16:22.871Z,95591.41
2018-09-20T11:18:51.805Z,95600.54
2018-09-20T11:21:20.704Z,95588.73
2018-09-20T11:23:49.660Z,95581.86
2018-09-20T11:26:18.607Z,95585.77
2018-09-20T11:28:47.569Z,95585.27
2018-09-20T11:31:16.576Z,95576.87
2018-09-20T11:33:45.564Z,95575.54
2018-09-20T11:36:14.477Z,95579.59
2018-09-20T11:38:43.391Z,95584.20
2018-09-20T11:41:12.340Z,95569.70
2018-09-20T11:43:41.272Z,95570.89
2018-09-20T11:46:10.238Z,95571.19
2018-09-20T11:48:39.105Z,95561.35
2018-09-20T11:51:08.072Z,95568.06
2018-09-20T11:53:36.972Z,95564.46
2018-09-20T11:56:05.979Z,95566.77
2018-09-20T11:58:34.862Z,95561.66
2018-09-20T12:01:03.731Z,95560.55
2018-09-20T12:03:32.710Z,95557.31
2018-09-20T12:06:01.608Z,95556.84
2018-09-20T12:08:30.557Z,95553.53
2018-09-20T12:10:59.433Z,95564.18
2018-09-20T12:13:28.315Z,95549.92
2018-09-20T12:15:57.254Z,95550.34
2018-09-20T12:18:26.256Z,95540.22
2018-09-20T12:20:55.164Z,95535.56
2018-09-20T12:23:24.055Z,95541.02
2018-09-20T12:25:52.940Z,95545.91
2018-09-20T12:28:21.855Z,95540.59
2018-09-20T12:30:50.854Z,95533.12
2018-09-20T12:33:19.742Z,95523.70
2018-09-20T12:35:48.736Z,95526.52
2018-09-20T12:38:17.664Z,95523.97
2018-09-20T12:40:48.988Z,95522.17
2018-09-20T12:43:17.907Z,95517.36
2018-09-20T12:45:46.780Z,95505.22
2018-09-20T12:48:15.767Z,95506.55
2018-09-20T12:50:44.636Z,95504.55
2018-09-20T12:53:13.514Z,95500.79
2018-09-20T12:55:42.419Z,95505.12
2018-09-20T12:58:11.374Z,95500.89
2018-09-20T13:00:40.304Z,95493.36
2018-09-20T13:03:09.313Z,95495.03
2018-09-20T13:05:38.272Z,95495.32
2018-09-20T13:08:07.276Z,95485.55
2018-09-20T13:10:36.188Z,95489.21
2018-09-20T13:13:05.200Z,95488.64
2018-09-20T13:15:34.107Z,95478.20
2018-09-20T13:18:03.032Z,95484.27
2018-09-20T13:20:32.008Z,95484.72
2018-09-20T13:23:00.876Z,95483.20
2018-09-20T13:25:29.874Z,95487.63
2018-09-20T13:27:58.777Z,95492.41
2018-09-20T13:30:27.696Z,95486.84
2018-09-20T13:32:56.601Z,95486.89
2018-09-20T13:35:25.568Z,95482.00
2018-09-20T13:37:54.513Z,95478.42
2018-09-20T13:40:23.480Z,95481.69
2018-09-20T13:42:52.473Z,95478.11
2018-09-20T13:45:25.167Z,95480.77
2018-09-20T13:48:15.002Z,95475.44
2018-09-20T13:50:43.960Z,95479.77
2018-09-20T13:53:14.807Z,95470.84
2018-09-20T13:55:43.813Z,95480.93
2018-09-20T13:58:12.703Z,95483.72
2018-09-20T14:00:42.853Z,95475.56
2018-09-20T14:03:11.787Z,95470.20
2018-09-20T14:05:41.461Z,95461.91
2018-09-20T14:08:10.482Z,95464.81
2018-09-20T14:10:39.436Z,95468.41
2018-09-20T14:13:08.324Z,95470.85
2018-09-20T14:15:37.369Z,95472.54
2018-09-20T14:18:06.254Z,95470.64
2018-09-20T14:20:35.140Z,95460.66
2018-09-20T14:23:04.116Z,95460.94
2018-09-20T14:25:33.030Z,95467.53
2018-09-20T14:28:01.952Z,95461.09
2018-09-20T14:30:30.848Z,95456.00
2018-09-20T14:32:59.848Z,95464.29
2018-09-20T14:35:28.820Z,95468.42
2018-09-20T14:37:57.787Z,95466.95
2018-09-20T14:40:26.727Z,95467.03
2018-09-20T14:42:55.631Z,95468.29
2018-09-20T14:45:24.515Z,95470.23
2018-09-20T14:47:53.408Z,95477.05
2018-09-20T14:50:22.311Z,95483.28
2018-09-20T14:52:51.232Z,95482.84
2018-09-20T14:55:20.197Z,95480.07
2018-09-20T14:57:49.076Z,95481.32
2018-09-20T15:00:17.995Z,95485.69
2018-09-20T15:02:47.048Z,95484.13
2018-09-20T15:05:15.935Z,95485.06
2018-09-20T15:07:44.891Z,95485.27
2018-09-20T15:10:13.806Z,95488.62
2018-09-20T15:12:42.731Z,95488.25
2018-09-20T15:15:11.741Z,95483.13
2018-09-20T15:17:40.764Z,95481.03
2018-09-20T15:20:09.654Z,95486.36
2018-09-20T15:22:38.571Z,95486.70
2018-09-20T15:25:07.940Z,95494.03
2018-09-20T15:27:36.939Z,95495.84
2018-09-20T15:30:06.480Z,95503.03
2018-09-20T15:32:35.408Z,95496.27
2018-09-20T15:35:04.362Z,95504.17
2018-09-20T15:37:33.279Z,95505.48
2018-09-20T15:40:02.411Z,95513.66
2018-09-20T15:42:31.442Z,95506.79
2018-09-20T15:45:00.561Z,95507.45
2018-09-20T15:47:29.519Z,95508.05
2018-09-20T15:49:58.412Z,95514.85
2018-09-20T15:52:27.312Z,95512.09
2018-09-20T15:54:56.208Z,95517.80
2018-09-20T15:57:25.119Z,95510.55
2018-09-20T15:59:54.087Z,95516.11
2018-09-20T16:02:23.090Z,95522.09
2018-09-20T16:04:51.966Z,95522.23
2018-09-20T16:07:20.923Z,95530.06
2018-09-20T16:09:49.824Z,95523.86
2018-09-20T16:12:18.728Z,95518.97
2018-09-20T16:14:47.627Z,95525.03
2018-09-20T16:17:16.524Z,95522.77
2018-09-20T16:19:45.502Z,95532.30
2018-09-20T16:22:14.492Z,95530.31
2018-09-20T16:24:43.380Z,95526.89
2018-09-20T16:27:12.509Z,95527.57
2018-09-20T16:29:59.924Z,95528.76
2018-09-20T16:34:10.445Z,95526.83
2018-09-20T16:36:49.080Z,95529.63
2018-09-20T16:39:21.588Z,95529.78
2018-09-20T16:41:55.044Z,95530.16
2018-09-20T16:44:23.999Z,95534.82
2018-09-20T16:46:53.213Z,95536.06
2018-09-20T16:49:22.947Z,95537.58
2018-09-20T16:51:51.880Z,95539.86
2018-09-20T16:54:20.792Z,95536.29
2018-09-20T16:56:49.747Z,95551.52
2018-09-20T16:59:18.644Z,95546.32
2018-09-20T17:01:47.537Z,95541.00
2018-09-20T17:04:16.434Z,95547.66
2018-09-20T17:06:45.304Z,95549.51
2018-09-20T17:09:14.208Z,95558.36
2018-09-20T17:11:43.157Z,95554.59
2018-09-20T17:14:12.060Z,95554.12
2018-09-20T17:16:41.081Z,95563.66
2018-09-20T17:19:10.081Z,95562.38
2018-09-20T17:21:39.130Z,95562.20
2018-09-20T17:24:08.114Z,95565.38
2018-09-20T17:26:37.048Z,95568.05
2018-09-20T17:29:06.093Z,95556.64
2018-09-20T17:31:35.024Z,95566.77
2018-09-20T17:34:04.197Z,95568.68
2018-09-20T17:36:34.091Z,95569.31
2018-09-20T17:39:04.153Z,95577.93
2018-09-20T17:41:35.744Z,95573.02
2018-09-20T17:44:06.567Z,95579.26
2018-09-20T17:46:35.510Z,95583.48
2018-09-20T17:49:04.420Z,95582.56
2018-09-20T17:51:34.024Z,95582.86
2018-09-20T17:54:03.926Z,95590.42
2018-09-20T17:56:33.512Z,95588.39
2018-09-20T17:59:03.552Z,95588.50
2018-09-20T18:01:32.724Z,95596.89
2018-09-20T18:04:01.804Z,95600.64
2018-09-20T18:06:30.752Z,95596.19
2018-09-20T18:08:59.720Z,95606.92
2018-09-20T18:11:28.624Z,95606.78
2018-09-20T18:13:57.685Z,95607.62
2018-09-20T18:16:26.588Z,95610.95
2018-09-20T18:18:55.476Z,95610.09
2018-09-20T18:21:24.532Z,95613.64
2018-09-20T18:23:53.439Z,95607.52
2018-09-20T18:26:22.350Z,95615.48
2018-09-20T18:28:51.215Z,95615.67
2018-09-20T18:31:20.128Z,95613.42
2018-09-20T18:33:49.046Z,95616.44
2018-09-20T18:36:18.094Z,95617.39
2018-09-20T18:38:48.512Z,95619.66
2018-09-20T18:41:17.383Z,95618.33
2018-09-20T18:43:46.344Z,95617.61
2018-09-20T18:46:15.288Z,95618.53
2018-09-20T18:48:44.195Z,95618.66
2018-09-20T18:51:13.129Z,95610.50
2018-09-20T18:53:42.063Z,95613.48
2018-09-20T18:56:10.962Z,95607.55
2018-09-20T18:58:39.961Z,95606.22
2018-09-20T19:01:08.973Z,95606.22
2018-09-20T19:03:38.008Z,95605.91
2018-09-20T19:06:06.931Z,95610.40
2018-09-20T19:08:35.839Z,95605.21
2018-09-20T19:11:04.833Z,95606.04
2018-09-20T19:13:33.773Z,95600.12
2018-09-20T19:16:02.745Z,95603.38
2018-09-20T19:18:31.702Z,95600.95
2018-09-20T19:21:00.737Z,95600.16
2018-09-20T19:23:29.734Z,95595.84
2018-09-20T19:25:58.648Z,95595.33
2018-09-20T19:28:27.548Z,95597.59
2018-09-20T19:30:56.432Z,95596.66
2018-09-20T19:33:25.367Z,95598.70
2018-09-20T19:35:54.320Z,95591.67
2018-09-20T19:38:23.256Z,95598.40
2018-09-20T19:40:52.195Z,95598.20
2018-09-20T19:43:21.097Z,95596.16
2018-09-20T19:45:49.984Z,95594.72
2018-09-20T19:48:18.847Z,95597.58
2018-09-20T19:50:47.801Z,95593.20
2018-09-20T19:53:16.692Z,95596.56
2018-09-20T19:55:45.575Z,95594.33
2018-09-20T19:58:14.483Z,95598.92
2018-09-20T20:00:43.428Z,95597.27
2018-09-20T20:03:12.328Z,95603.91
2018-09-20T20:05:41.351Z,95602.58
2018-09-20T20:08:10.335Z,95603.06
2018-09-20T20:10:39.211Z,95607.64
2018-09-20T20:13:08.196Z,95606.70
2018-09-20T20:15:37.188Z,95606.31
2018-09-20T20:18:06.111Z,95608.55
2018-09-20T20:20:35.007Z,95603.75
2018-09-20T20:23:03.943Z,95601.52
2018-09-20T20:25:33.001Z,95609.78
2018-09-20T20:28:01.934Z,95607.42
2018-09-20T20:30:30.853Z,95602.07
2018-09-20T20:32:59.753Z,95607.28
2018-09-20T20:35:28.810Z,95605.02
2018-09-20T20:37:57.690Z,95604.49
2018-09-20T20:40:26.576Z,95611.70
2018-09-20T20:42:55.478Z,95611.77
2018-09-20T20:45:24.392Z,95608.98
2018-09-20T20:47:53.283Z,95606.75
2018-09-20T20:50:22.176Z,95607.14
2018-09-20T20:52:51.099Z,95599.28
2018-09-20T20:55:20.010Z,95598.09
2018-09-20T20:57:48.988Z,95599.51
2018-09-20T21:00:18.156Z,95605.00
2018-09-20T21:02:47.033Z,95601.83
2018-09-20T21:05:15.963Z,95600.50
2018-09-20T21:07:44.911Z,95604.78
2018-09-20T21:10:13.878Z,95598.88
2018-09-20T21:12:42.809Z,95610.37
2018-09-20T21:15:11.724Z,95609.70
2018-09-20T21:17:40.658Z,95612.73
2018-09-20T21:20:09.612Z,95615.16
2018-09-20T21:22:38.530Z,95616.09
2018-09-20T21:25:07.435Z,95620.98
2018-09-20T21:27:36.493Z,95616.48
2018-09-20T21:30:05.403Z,95616.25
2018-09-20T21:32:34.287Z,95618.63
2018-09-20T21:35:03.199Z,95612.13
2018-09-20T21:37:32.089Z,95616.09
2018-09-20T21:40:01.157Z,95616.89
2018-09-20T21:42:30.056Z,95617.05
2018-09-20T21:44:58.960Z,95614.03
2018-09-20T21:47:27.843Z,95613.22
2018-09-20T21:49:56.832Z,95614.64
2018-09-20T21:52:25.770Z,95613.45
2018-09-20T21:54:54.660Z,95612.30
2018-09-20T21:57:23.578Z,95615.16
2018-09-20T21:59:52.460Z,95613.75
2018-09-20T22:02:26.638Z,95617.01
2018-09-20T22:04:55.533Z,95612.95
2018-09-20T22:07:24.477Z,95620.18
2018-09-20T22:09:53.404Z,95608.17
2018-09-20T22:12:22.364Z,95611.84
2018-09-20T22:14:51.290Z,95623.63
2018-09-20T22:17:20.596Z,95623.90
2018-09-20T22:19:49.829Z,95617.26
2018-09-20T22:22:18.700Z,95617.66
2018-09-20T22:24:47.599Z,95616.39
2018-09-20T22:27:16.476Z,95617.25
2018-09-20T22:29:45.508Z,95618.27
2018-09-20T22:32:14.835Z,95615.36
2018-09-20T22:34:43.739Z,95622.88
2018-09-20T22:37:13.109Z,95616.79
2018-09-20T22:39:42.039Z,95611.84
2018-09-20T22:42:10.950Z,95613.98
2018-09-20T22:44:39.835Z,95611.04
2018-09-20T22:47:08.787Z,95618.07
2018-09-20T22:49:37.672Z,95614.45
2018-09-20T22:52:06.608Z,95615.06
2018-09-20T22:54:35.503Z,95611.71
2018-09-20T22:57:04.383Z,95602.54
2018-09-20T22:59:33.284Z,95605.59
2018-09-20T23:02:02.153Z,95603.20
2018-09-20T23:04:31.023Z,95602.84
2018-09-20T23:07:00.055Z,95606.84
2018-09-20T23:09:29.009Z,95605.43
2018-09-20T23:11:58.003Z,95612.20
2018-09-20T23:14:26.888Z,95607.55
2018-09-20T23:16:55.904Z,95608.23
2018-09-20T23:19:24.815Z,95609.13
2018-09-20T23:21:53.773Z,95607.19
2018-09-20T23:24:22.732Z,95610.42
2018-09-20T23:26:51.606Z,95606.41
2018-09-20T23:29:20.480Z,95605.72
2018-09-20T23:31:49.518Z,95603.31
2018-09-20T23:34:18.539Z,95608.28
2018-09-20T23:36:47.457Z,95602.30
2018-09-20T23:39:16.344Z,95611.05
2018-09-20T23:41:45.244Z,95602.30
2018-09-20T23:44:14.144Z,95604.20
2018-09-20T23:46:44.239Z,95611.63
2018-09-20T23:49:13.119Z,95608.59
2018-09-20T23:51:42.031Z,95609.30
2018-09-20T23:54:10.896Z,95615.97
2018-09-20T23:56:39.931Z,95610.97
2018-09-20T23:59:08.817Z,95606.70
